Airfield :
LOGIN :

Register | Disclaimer

   EN    FR    IT 

 










Legend :    VFR   Marginal VFR   IFR   Intensive IFR   Very Intensive IFR
Visi :
Ceiling :
>= 8 km
>= 3000ft
5 to 8 km
1000 to 3000 ft
1500m to 5 km
500 to 1000 ft
800 to 1500m
200 to 500 ft
< 800m
< 200 ft
Symbols :   Thunderstorms  Fog  Heavy snow  Heavy precipitations  Wind > 20 kt
SIGMETs :     Misc.  Thunderstorms  Icing  Turbulence  Mountain Waves  Volcanic Ashes







- Airport Elevation : 461 ft
- IATA code : WIE


ETOU - Wiesbaden Army

CURRENT METAR :
  • 172056Z AUTO 26006KT 9999 CLR 01/M04 A2983 RMK AO2 SLP110 T00111040 52019 $

EXPIRED METARs :
  • 171956Z AUTO 28011KT 9999 FEW048 02/M03 A2981 RMK AO2 SLP102 T00231030 $
  • 171856Z AUTO 28010KT 9999 FEW110 SCT140 03/M03 A2980 RMK AO2 SLP099 T00271026 $

TAF TAF ETOU
Valid from the 17 at 20:00 until the 19 at 02:00 UTC


172007Z 1720/1902 26012KT 9999 SCT030 QNH2982INS
BECMG 1802/1803 29009KT 9999 SCT010 BKN025 QNH2990INS
BECMG 1806/1807 VRB06KT 9999 SCT015 BKN020 QNH3000INS TX04/1814Z TNM01/1804Z
No reported NOTAMs for that airfield.



MET'MAP, your aeronautical weather chart ! - Copyright ORBIFLY December 2007 - Disclaimer

ORBIFLY MET'MAP TEAM :

Programming & Development : Alexandra Zaïnal
Concept & Development : Baudouin d'Aumeries
Co-Development & Prog : Marc-Olivier Méhu
Technical & hardware support : Manuel Goepfert

Contact : metmap@orbifly.com




SOURCES & CREDITS :

   NOAA